Time;durP1;ratioP1;P1;durP2;ratioP2;P2;SDS_P1;SDS_P2;PMS_P1;PMS_P2;Temp;Humidity;BMP_temperature;BMP_pressure;BME280_temperature;BME280_humidity;BME280_pressure;Samples;Min_cycle;Max_cycle;Signal;HPM_P1;HPM_P2
2022/09/29 00:02:24;;;;;;;2.47;2.28;;;;;;;;;;5041865;28;20052;-85
2022/09/29 00:04:52;;;;;;;2.60;2.35;;;;;;;;;;5027761;28;20445;-84
2022/09/29 00:07:18;;;;;;;2.70;2.20;;;;;;;;;;5041271;28;20049;-84
2022/09/29 00:09:44;;;;;;;2.85;2.60;;;;;;;;;;5027466;28;20155;-85
2022/09/29 00:12:10;;;;;;;3.10;2.20;;;;;;;;;;5041405;28;20202;-85
2022/09/29 00:14:36;;;;;;;4.15;2.30;;;;;;;;;;5030529;28;20041;-85
2022/09/29 00:17:02;;;;;;;2.30;2.10;;;;;;;;;;5040772;28;20602;-85
2022/09/29 00:19:28;;;;;;;2.00;1.90;;;;;;;;;;5031497;28;20049;-84
2022/09/29 00:21:54;;;;;;;2.03;1.92;;;;;;;;;;5029244;28;20056;-85
2022/09/29 00:24:23;;;;;;;2.00;1.90;;;;;;;;;;5044371;28;20662;-84
2022/09/29 00:26:49;;;;;;;2.50;2.00;;;;;;;;;;5034777;28;20044;-84
2022/09/29 00:29:15;;;;;;;2.50;2.30;;;;;;;;;;5047011;28;20037;-84
2022/09/29 00:31:41;;;;;;;2.50;2.20;;;;;;;;;;5034321;28;20056;-84
2022/09/29 00:34:07;;;;;;;2.00;1.90;;;;;;;;;;5031824;28;20045;-84
2022/09/29 00:36:33;;;;;;;2.20;2.00;;;;;;;;;;5033250;28;20044;-84
2022/09/29 00:39:00;;;;;;;2.25;2.05;;;;;;;;;;5034835;28;20041;-84
2022/09/29 00:41:27;;;;;;;2.53;1.88;;;;;;;;;;5031564;28;20084;-85
2022/09/29 00:43:59;;;;;;;2.28;1.80;;;;;;;;;;5050967;28;20080;-85
2022/09/29 00:46:37;;;;;;;2.70;1.83;;;;;;;;;;5054726;28;20045;-85
2022/09/29 00:49:13;;;;;;;1.98;1.80;;;;;;;;;;5022204;28;20049;-85
2022/09/29 00:51:40;;;;;;;2.28;1.80;;;;;;;;;;5047804;28;20049;-84
2022/09/29 00:54:06;;;;;;;3.28;2.03;;;;;;;;;;5035402;28;20040;-84
2022/09/29 00:56:33;;;;;;;2.45;1.90;;;;;;;;;;5055810;28;20503;-85
2022/09/29 00:59:02;;;;;;;1.90;1.80;;;;;;;;;;5053456;28;20048;-85
2022/09/29 01:01:30;;;;;;;2.05;1.92;;;;;;;;;;5048635;28;20045;-84
2022/09/29 01:03:57;;;;;;;2.00;1.90;;;;;;;;;;5053464;28;20127;-84
2022/09/29 01:06:26;;;;;;;2.13;1.92;;;;;;;;;;5050029;28;20045;-84
2022/09/29 01:09:00;;;;;;;2.03;1.73;;;;;;;;;;5049144;28;20086;-84
2022/09/29 01:11:26;;;;;;;2.63;1.90;;;;;;;;;;5031210;28;20064;-84
2022/09/29 01:13:54;;;;;;;1.85;1.75;;;;;;;;;;5034929;28;20110;-85
2022/09/29 01:16:20;;;;;;;2.00;1.90;;;;;;;;;;5036230;28;20041;-84
2022/09/29 01:18:51;;;;;;;1.95;1.85;;;;;;;;;;5057893;28;20094;-86
2022/09/29 01:21:24;;;;;;;1.92;1.83;;;;;;;;;;5059133;28;20395;-85
2022/09/29 01:23:56;;;;;;;4.25;1.90;;;;;;;;;;5036732;28;20045;-85
2022/09/29 01:26:40;;;;;;;2.17;2.00;;;;;;;;;;5035686;28;20109;-85
2022/09/29 01:29:25;;;;;;;1.90;1.80;;;;;;;;;;5029636;28;20452;-85
2022/09/29 01:32:03;;;;;;;2.15;1.90;;;;;;;;;;5052354;28;20055;-84
2022/09/29 01:34:47;;;;;;;2.20;2.00;;;;;;;;;;5033499;28;20048;-85
2022/09/29 01:37:19;;;;;;;2.50;2.30;;;;;;;;;;5042502;28;20061;-85
2022/09/29 01:39:54;;;;;;;2.40;1.83;;;;;;;;;;5056202;28;20052;-86
2022/09/29 01:42:24;;;;;;;2.20;2.10;;;;;;;;;;5033603;28;20041;-85
2022/09/29 01:44:53;;;;;;;2.63;2.40;;;;;;;;;;5034319;28;20076;-85
2022/09/29 01:47:25;;;;;;;2.47;2.30;;;;;;;;;;5025079;28;20051;-85
2022/09/29 01:49:55;;;;;;;2.30;2.17;;;;;;;;;;5053618;28;20131;-85
2022/09/29 01:52:24;;;;;;;2.35;2.20;;;;;;;;;;5047894;28;20521;-85
2022/09/29 01:55:01;;;;;;;2.63;2.10;;;;;;;;;;5036472;28;20052;-85
2022/09/29 01:57:30;;;;;;;2.60;2.40;;;;;;;;;;5033623;28;20091;-84
2022/09/29 02:00:09;;;;;;;2.47;2.30;;;;;;;;;;5032890;28;20052;-85
2022/09/29 02:02:47;;;;;;;4.55;2.75;;;;;;;;;;5045012;28;20040;-85
2022/09/29 02:05:17;;;;;;;2.55;2.35;;;;;;;;;;5053805;28;20044;-84
2022/09/29 02:07:44;;;;;;;2.85;2.35;;;;;;;;;;5054630;28;20110;-85
2022/09/29 02:10:13;;;;;;;3.08;2.55;;;;;;;;;;5032887;28;20048;-84
2022/09/29 02:12:40;;;;;;;2.30;2.10;;;;;;;;;;5050546;28;20045;-85
2022/09/29 02:15:10;;;;;;;2.63;2.42;;;;;;;;;;5036395;28;20068;-85
2022/09/29 02:17:38;;;;;;;3.17;2.60;;;;;;;;;;5049819;28;20041;-85
2022/09/29 02:20:05;;;;;;;2.60;2.40;;;;;;;;;;5039005;28;20069;-84
2022/09/29 02:22:31;;;;;;;2.78;2.50;;;;;;;;;;5029031;28;20041;-85
2022/09/29 02:24:58;;;;;;;2.80;2.60;;;;;;;;;;5052382;28;20051;-85
2022/09/29 02:27:27;;;;;;;3.47;2.70;;;;;;;;;;5048112;28;20413;-85
2022/09/29 02:29:54;;;;;;;3.00;2.80;;;;;;;;;;5038887;28;20378;-85
2022/09/29 02:32:20;;;;;;;3.30;3.00;;;;;;;;;;5053471;28;20048;-84
2022/09/29 02:34:50;;;;;;;3.22;3.03;;;;;;;;;;5032793;28;20527;-85
2022/09/29 02:37:28;;;;;;;3.10;2.90;;;;;;;;;;5050084;28;20411;-85
2022/09/29 02:40:04;;;;;;;3.50;3.20;;;;;;;;;;5057955;28;20479;-85
2022/09/29 02:42:49;;;;;;;5.13;3.28;;;;;;;;;;5050219;28;20092;-83
2022/09/29 02:45:21;;;;;;;3.60;3.13;;;;;;;;;;5044901;28;20052;-86
2022/09/29 02:47:59;;;;;;;3.88;3.47;;;;;;;;;;5022857;28;20056;-85
2022/09/29 02:50:31;;;;;;;3.50;3.20;;;;;;;;;;5046537;28;20040;-84
2022/09/29 02:52:57;;;;;;;3.45;3.15;;;;;;;;;;5023094;28;20396;-84
2022/09/29 02:55:23;;;;;;;3.60;3.30;;;;;;;;;;5045733;28;20049;-84
2022/09/29 02:57:55;;;;;;;5.65;4.10;;;;;;;;;;5047931;28;20051;-85
2022/09/29 03:00:21;;;;;;;3.80;3.50;;;;;;;;;;5047157;28;20072;-84
2022/09/29 03:02:47;;;;;;;3.67;3.38;;;;;;;;;;5044849;28;20516;-84
2022/09/29 03:05:18;;;;;;;3.97;3.58;;;;;;;;;;5047917;28;20511;-84
2022/09/29 03:07:44;;;;;;;3.80;3.50;;;;;;;;;;5030555;28;20098;-84
2022/09/29 03:10:11;;;;;;;3.80;3.47;;;;;;;;;;5034111;28;20416;-84
2022/09/29 03:12:37;;;;;;;3.70;3.40;;;;;;;;;;5046469;28;20119;-84
2022/09/29 03:15:04;;;;;;;4.13;3.72;;;;;;;;;;5031947;28;20514;-84
2022/09/29 03:17:30;;;;;;;3.78;3.40;;;;;;;;;;5047863;28;20044;-84
2022/09/29 03:19:56;;;;;;;3.60;3.30;;;;;;;;;;5028210;28;20033;-84
2022/09/29 03:22:23;;;;;;;4.45;3.60;;;;;;;;;;5027405;28;20102;-84
2022/09/29 03:24:49;;;;;;;3.97;3.67;;;;;;;;;;5036168;28;20041;-84
2022/09/29 03:27:15;;;;;;;3.85;3.55;;;;;;;;;;5046022;28;20072;-85
2022/09/29 03:29:44;;;;;;;4.60;3.25;;;;;;;;;;5047753;28;20132;-85
2022/09/29 03:32:10;;;;;;;4.78;3.95;;;;;;;;;;5044023;28;20048;-84
2022/09/29 03:34:36;;;;;;;3.78;3.47;;;;;;;;;;5030742;28;20384;-84
2022/09/29 03:37:21;;;;;;;6.05;3.65;;;;;;;;;;5033335;28;20053;-85
2022/09/29 03:39:47;;;;;;;4.50;3.70;;;;;;;;;;5036170;28;20052;-84
2022/09/29 03:42:13;;;;;;;6.15;3.50;;;;;;;;;;5035222;28;20496;-84
2022/09/29 03:44:39;;;;;;;6.60;4.18;;;;;;;;;;5027870;28;20130;-84
2022/09/29 03:47:05;;;;;;;4.82;3.72;;;;;;;;;;5030507;28;20047;-85
2022/09/29 03:49:31;;;;;;;3.97;3.67;;;;;;;;;;5028335;28;20037;-84
2022/09/29 03:51:57;;;;;;;4.30;3.90;;;;;;;;;;5029574;28;20496;-84
2022/09/29 03:54:25;;;;;;;5.00;4.20;;;;;;;;;;5041960;28;21037;-84
2022/09/29 03:56:51;;;;;;;6.03;4.00;;;;;;;;;;5041772;28;20082;-85
2022/09/29 03:59:17;;;;;;;4.45;4.07;;;;;;;;;;5041221;28;20123;-84
2022/09/29 04:01:43;;;;;;;4.95;4.45;;;;;;;;;;5042737;28;20136;-84
2022/09/29 04:04:09;;;;;;;4.53;3.85;;;;;;;;;;5031237;28;20492;-84
2022/09/29 04:06:35;;;;;;;4.75;4.13;;;;;;;;;;5042457;28;20056;-84
2022/09/29 04:09:01;;;;;;;5.80;4.53;;;;;;;;;;5042556;28;20029;-85
2022/09/29 04:11:27;;;;;;;4.93;4.18;;;;;;;;;;5041344;28;20055;-84
2022/09/29 04:13:56;;;;;;;5.40;4.80;;;;;;;;;;5028590;28;20045;-84
2022/09/29 04:16:22;;;;;;;5.70;5.15;;;;;;;;;;5042878;28;20116;-84
2022/09/29 04:18:48;;;;;;;5.55;4.80;;;;;;;;;;5027928;28;20061;-84
2022/09/29 04:21:15;;;;;;;5.60;4.55;;;;;;;;;;5031558;28;20040;-84
2022/09/29 04:23:41;;;;;;;6.80;4.82;;;;;;;;;;5031158;28;20049;-84
2022/09/29 04:26:07;;;;;;;5.00;4.50;;;;;;;;;;5030604;28;20435;-84
2022/09/29 04:28:34;;;;;;;5.20;4.57;;;;;;;;;;5027908;28;20040;-84
2022/09/29 04:31:01;;;;;;;7.68;5.72;;;;;;;;;;5042427;28;20037;-84
2022/09/29 04:33:28;;;;;;;6.65;5.93;;;;;;;;;;5033181;28;20432;-84
2022/09/29 04:35:54;;;;;;;6.00;5.40;;;;;;;;;;5026048;28;20045;-84
2022/09/29 04:38:20;;;;;;;6.43;4.88;;;;;;;;;;5030806;28;20141;-85
2022/09/29 04:40:47;;;;;;;5.43;4.93;;;;;;;;;;5054197;28;20037;-85
2022/09/29 04:43:13;;;;;;;6.05;5.45;;;;;;;;;;5056120;28;20198;-85
2022/09/29 04:45:39;;;;;;;6.47;5.85;;;;;;;;;;5048602;28;20480;-85
2022/09/29 04:48:06;;;;;;;6.60;5.97;;;;;;;;;;5032164;28;20435;-84
2022/09/29 04:50:35;;;;;;;6.18;5.53;;;;;;;;;;5032584;28;20096;-84
2022/09/29 04:53:01;;;;;;;6.32;5.70;;;;;;;;;;5025673;28;20033;-84
2022/09/29 04:55:27;;;;;;;6.38;5.78;;;;;;;;;;5030783;28;20180;-85
2022/09/29 04:57:53;;;;;;;7.40;5.72;;;;;;;;;;5030915;28;20073;-84
2022/09/29 05:00:20;;;;;;;6.20;5.60;;;;;;;;;;5055220;28;20037;-84
2022/09/29 05:02:46;;;;;;;6.90;6.20;;;;;;;;;;5052027;28;20075;-85
2022/09/29 05:05:12;;;;;;;8.65;6.05;;;;;;;;;;5042801;28;20049;-84
2022/09/29 05:07:40;;;;;;;7.00;5.88;;;;;;;;;;5034941;28;20426;-84
2022/09/29 05:10:07;;;;;;;6.15;5.55;;;;;;;;;;5036822;28;20052;-84
2022/09/29 05:12:33;;;;;;;6.40;5.80;;;;;;;;;;5038735;28;20052;-84
2022/09/29 05:14:59;;;;;;;5.85;5.35;;;;;;;;;;5037439;28;20064;-84
2022/09/29 05:17:25;;;;;;;8.00;7.20;;;;;;;;;;5048164;28;20135;-84
2022/09/29 05:19:57;;;;;;;8.82;7.40;;;;;;;;;;5030856;28;20044;-84
2022/09/29 05:22:24;;;;;;;9.50;8.20;;;;;;;;;;5042594;28;20049;-84
2022/09/29 05:24:51;;;;;;;8.23;7.40;;;;;;;;;;5034513;28;20045;-84
2022/09/29 05:27:21;;;;;;;8.80;6.80;;;;;;;;;;5031411;28;20041;-84
2022/09/29 05:29:47;;;;;;;8.32;7.22;;;;;;;;;;5032278;28;20146;-83
2022/09/29 05:32:13;;;;;;;7.80;7.00;;;;;;;;;;5032675;28;20052;-83
2022/09/29 05:34:39;;;;;;;8.45;6.97;;;;;;;;;;5045245;28;20124;-83
2022/09/29 05:37:06;;;;;;;7.07;6.47;;;;;;;;;;5032787;28;20041;-83
2022/09/29 05:39:33;;;;;;;8.02;7.20;;;;;;;;;;5030722;28;20049;-83
2022/09/29 05:42:04;;;;;;;7.45;6.75;;;;;;;;;;5032530;28;20057;-83
2022/09/29 05:44:31;;;;;;;8.60;7.70;;;;;;;;;;5042506;28;20056;-83
2022/09/29 05:46:57;;;;;;;7.50;6.72;;;;;;;;;;5036703;28;20045;-84
2022/09/29 05:49:23;;;;;;;8.75;7.70;;;;;;;;;;5049113;28;20037;-84
2022/09/29 05:51:49;;;;;;;9.77;7.70;;;;;;;;;;5037124;28;20049;-84
2022/09/29 05:54:15;;;;;;;8.65;7.75;;;;;;;;;;5028390;28;20044;-84
2022/09/29 05:56:41;;;;;;;8.80;7.90;;;;;;;;;;5041198;28;20090;-84
2022/09/29 05:59:09;;;;;;;8.48;7.15;;;;;;;;;;5036735;28;20139;-84
2022/09/29 06:01:35;;;;;;;11.23;7.50;;;;;;;;;;5046260;28;20480;-84
2022/09/29 06:04:02;;;;;;;7.85;7.13;;;;;;;;;;5032042;28;20144;-84
2022/09/29 06:06:28;;;;;;;8.40;7.53;;;;;;;;;;5046057;28;20048;-84
2022/09/29 06:08:56;;;;;;;8.18;7.38;;;;;;;;;;5043295;28;20041;-84
2022/09/29 06:11:23;;;;;;;8.75;7.85;;;;;;;;;;5043580;28;20045;-84
2022/09/29 06:13:50;;;;;;;9.02;7.78;;;;;;;;;;5045224;28;20519;-84
2022/09/29 06:16:18;;;;;;;10.23;7.95;;;;;;;;;;5044213;28;20455;-85
2022/09/29 06:18:44;;;;;;;8.88;7.97;;;;;;;;;;5044408;28;20364;-84
2022/09/29 06:21:11;;;;;;;8.45;7.38;;;;;;;;;;5045108;28;20040;-84
2022/09/29 06:23:38;;;;;;;8.40;7.50;;;;;;;;;;5044091;28;20515;-85
2022/09/29 06:26:06;;;;;;;8.32;7.53;;;;;;;;;;5036571;28;20061;-85
2022/09/29 06:28:32;;;;;;;9.20;6.57;;;;;;;;;;5030531;28;20040;-86
2022/09/29 06:31:13;;;;;;;7.60;6.90;;;;;;;;;;5043433;28;20052;-84
2022/09/29 06:33:39;;;;;;;8.98;6.82;;;;;;;;;;5045360;28;20040;-85
2022/09/29 06:38:56;;;;;;;8.70;7.30;;;;;;;;;;5030409;28;20395;-85
2022/09/29 06:41:22;;;;;;;8.23;7.32;;;;;;;;;;5033386;28;20111;-85
2022/09/29 06:43:48;;;;;;;8.05;6.72;;;;;;;;;;5042742;28;20124;-84
2022/09/29 06:46:14;;;;;;;9.18;6.78;;;;;;;;;;5022691;28;20045;-86
2022/09/29 06:48:40;;;;;;;8.20;7.05;;;;;;;;;;5049820;28;20044;-85
2022/09/29 06:51:07;;;;;;;8.52;7.20;;;;;;;;;;5049529;28;20029;-84
2022/09/29 06:53:33;;;;;;;7.95;7.15;;;;;;;;;;5060051;28;20064;-83
2022/09/29 06:55:59;;;;;;;11.18;7.95;;;;;;;;;;5024641;28;20052;-83
2022/09/29 06:58:26;;;;;;;8.77;7.88;;;;;;;;;;5023096;28;20395;-85
2022/09/29 07:00:52;;;;;;;9.25;8.05;;;;;;;;;;5049350;28;20034;-84
2022/09/29 07:03:19;;;;;;;13.50;8.27;;;;;;;;;;5033115;28;20475;-85
2022/09/29 07:05:45;;;;;;;9.55;8.55;;;;;;;;;;5036136;28;20045;-85
2022/09/29 07:08:11;;;;;;;10.48;8.57;;;;;;;;;;5038645;28;20041;-85
2022/09/29 07:10:37;;;;;;;10.18;8.60;;;;;;;;;;5034362;28;20099;-85
2022/09/29 07:13:04;;;;;;;10.43;9.30;;;;;;;;;;5033859;28;20061;-85
2022/09/29 07:15:30;;;;;;;10.55;9.32;;;;;;;;;;5024925;28;20506;-85
2022/09/29 07:17:58;;;;;;;11.75;9.73;;;;;;;;;;5027300;28;20054;-84
2022/09/29 07:20:24;;;;;;;12.45;10.57;;;;;;;;;;5033738;28;20056;-85
2022/09/29 07:22:50;;;;;;;11.95;10.02;;;;;;;;;;5035359;28;20045;-84
2022/09/29 07:25:16;;;;;;;13.27;10.23;;;;;;;;;;5051594;28;20037;-84
2022/09/29 07:27:42;;;;;;;10.57;9.48;;;;;;;;;;5039680;28;20487;-84
2022/09/29 07:30:09;;;;;;;11.40;9.90;;;;;;;;;;5060742;28;20044;-83
2022/09/29 07:32:35;;;;;;;10.50;8.88;;;;;;;;;;5032115;28;20045;-81
2022/09/29 07:35:01;;;;;;;11.50;8.93;;;;;;;;;;5024337;28;20049;-83
2022/09/29 07:37:28;;;;;;;10.00;8.48;;;;;;;;;;5040487;28;20052;-83
2022/09/29 07:39:54;;;;;;;10.25;9.13;;;;;;;;;;5045032;28;20037;-84
2022/09/29 07:42:20;;;;;;;11.35;9.07;;;;;;;;;;5034429;28;20044;-83
2022/09/29 07:44:47;;;;;;;9.23;8.27;;;;;;;;;;5065643;28;20060;-84
2022/09/29 07:47:13;;;;;;;16.05;9.50;;;;;;;;;;5049724;28;20397;-84
2022/09/29 07:49:43;;;;;;;10.80;9.07;;;;;;;;;;5054868;28;20088;-84
2022/09/29 07:52:09;;;;;;;10.38;8.80;;;;;;;;;;5051268;28;20055;-83
2022/09/29 07:54:35;;;;;;;12.27;9.80;;;;;;;;;;5043443;28;20041;-84
2022/09/29 07:57:02;;;;;;;12.95;9.52;;;;;;;;;;5048633;28;20041;-84
2022/09/29 07:59:28;;;;;;;12.43;8.82;;;;;;;;;;5045544;28;20049;-85
2022/09/29 08:01:55;;;;;;;10.20;9.13;;;;;;;;;;5041762;28;20392;-84
2022/09/29 08:04:21;;;;;;;9.52;7.85;;;;;;;;;;5044469;28;20086;-85
2022/09/29 08:06:47;;;;;;;9.75;8.07;;;;;;;;;;5061762;28;20041;-85
2022/09/29 08:09:13;;;;;;;7.97;7.00;;;;;;;;;;5031925;28;20491;-84
2022/09/29 08:11:41;;;;;;;9.02;7.57;;;;;;;;;;5061328;28;20100;-84
2022/09/29 08:14:08;;;;;;;8.27;7.40;;;;;;;;;;5056780;28;20045;-84
2022/09/29 08:16:34;;;;;;;8.70;7.70;;;;;;;;;;5039498;28;20056;-85
2022/09/29 08:19:01;;;;;;;8.20;6.85;;;;;;;;;;5042864;28;20190;-85
2022/09/29 08:21:28;;;;;;;7.47;6.10;;;;;;;;;;5034722;28;20068;-84
2022/09/29 08:23:54;;;;;;;6.65;5.95;;;;;;;;;;5041790;28;20041;-85
2022/09/29 08:26:21;;;;;;;6.45;5.75;;;;;;;;;;5055937;28;20044;-85
2022/09/29 08:28:48;;;;;;;5.95;4.90;;;;;;;;;;5046250;28;20047;-86
2022/09/29 08:31:21;;;;;;;4.05;3.50;;;;;;;;;;5059158;28;20511;-85
2022/09/29 08:33:50;;;;;;;;;;;;;;;;;;5042776;28;20041;-85
2022/09/29 08:36:17;;;;;;;5.65;3.60;;;;;;;;;;5042937;28;19974;-85
2022/09/29 08:38:43;;;;;;;4.60;4.10;;;;;;;;;;5035664;28;20049;-86
2022/09/29 08:41:28;;;;;;;4.97;4.00;;;;;;;;;;5027326;28;20123;-86
2022/09/29 08:43:56;;;;;;;8.23;4.78;;;;;;;;;;5051480;28;20110;-85
2022/09/29 08:46:40;;;;;;;5.10;4.45;;;;;;;;;;5060491;28;20032;-85
2022/09/29 08:49:10;;;;;;;6.97;5.20;;;;;;;;;;5044355;28;20052;-85
2022/09/29 08:51:38;;;;;;;9.20;5.43;;;;;;;;;;5042513;28;20076;-84
2022/09/29 08:54:15;;;;;;;4.55;3.78;;;;;;;;;;5044614;28;20060;-86
2022/09/29 08:56:41;;;;;;;4.90;4.25;;;;;;;;;;5038958;28;20577;-85
2022/09/29 08:59:09;;;;;;;3.38;2.92;;;;;;;;;;5065980;28;20040;-79
2022/09/29 09:01:58;;;;;;;3.60;2.50;;;;;;;;;;5050993;28;20048;-86
2022/09/29 09:04:43;;;;;;;5.47;2.92;;;;;;;;;;5039860;28;20126;-85
2022/09/29 09:07:24;;;;;;;3.58;2.88;;;;;;;;;;5033610;28;20049;-86
2022/09/29 09:09:50;;;;;;;2.55;2.35;;;;;;;;;;5055958;28;20057;-85
2022/09/29 09:12:23;;;;;;;2.83;2.50;;;;;;;;;;5062339;28;20230;-86
2022/09/29 09:15:07;;;;;;;3.63;3.13;;;;;;;;;;5037220;28;20090;-85
2022/09/29 09:17:52;;;;;;;4.43;3.38;;;;;;;;;;5064795;28;20057;-85
2022/09/29 09:20:26;;;;;;;9.75;3.40;;;;;;;;;;5037623;28;20048;-85
2022/09/29 09:22:59;;;;;;;6.05;4.10;;;;;;;;;;5054191;28;20051;-85
2022/09/29 09:25:47;;;;;;;7.22;4.90;;;;;;;;;;5058644;28;20154;-86
2022/09/29 09:28:26;;;;;;;10.05;6.00;;;;;;;;;;5033632;28;20052;-86
2022/09/29 09:30:55;;;;;;;7.60;6.50;;;;;;;;;;5043597;28;20075;-86
2022/09/29 09:33:25;;;;;;;9.40;6.70;;;;;;;;;;5048491;28;20508;-85
2022/09/29 09:35:53;;;;;;;8.38;6.97;;;;;;;;;;5052174;28;20041;-86
2022/09/29 09:38:21;;;;;;;8.35;6.97;;;;;;;;;;5039601;28;20046;-86
2022/09/29 09:40:50;;;;;;;7.88;6.55;;;;;;;;;;5045298;28;20043;-86
2022/09/29 09:43:19;;;;;;;9.63;7.22;;;;;;;;;;5057593;28;20060;-86
2022/09/29 09:45:48;;;;;;;7.47;6.30;;;;;;;;;;5050415;28;20049;-86
2022/09/29 09:48:18;;;;;;;8.73;7.25;;;;;;;;;;5063091;28;20041;-85
2022/09/29 09:50:45;;;;;;;9.18;6.75;;;;;;;;;;5044363;28;20047;-86
2022/09/29 09:53:14;;;;;;;7.90;6.30;;;;;;;;;;5067365;28;20399;-88
2022/09/29 09:55:42;;;;;;;8.65;6.38;;;;;;;;;;5038320;28;20473;-85
2022/09/29 09:58:18;;;;;;;7.22;5.95;;;;;;;;;;5061355;28;20055;-86
2022/09/29 10:01:05;;;;;;;7.93;5.68;;;;;;;;;;5058479;28;20086;-86
2022/09/29 10:03:32;;;;;;;6.63;5.50;;;;;;;;;;5061662;28;20040;-85
2022/09/29 10:05:59;;;;;;;6.40;5.78;;;;;;;;;;5059996;28;20510;-85
2022/09/29 10:08:25;;;;;;;6.57;5.22;;;;;;;;;;5065548;28;20106;-86
2022/09/29 10:10:51;;;;;;;7.03;4.55;;;;;;;;;;5033136;28;20045;-86
2022/09/29 10:13:17;;;;;;;4.85;3.90;;;;;;;;;;5066167;28;20059;-86
2022/09/29 10:16:02;;;;;;;3.20;2.90;;;;;;;;;;5057781;28;20140;-85
2022/09/29 10:18:31;;;;;;;3.78;2.95;;;;;;;;;;5061802;28;20041;-86
2022/09/29 10:20:57;;;;;;;3.53;2.95;;;;;;;;;;5065251;28;20130;-85
2022/09/29 10:23:26;;;;;;;3.22;2.58;;;;;;;;;;5046843;28;20047;-86
2022/09/29 10:26:04;;;;;;;2.88;2.47;;;;;;;;;;5044734;28;20041;-85
2022/09/29 10:28:38;;;;;;;6.45;2.92;;;;;;;;;;5035608;28;20045;-86
2022/09/29 10:31:15;;;;;;;3.65;2.75;;;;;;;;;;5037377;28;20056;-86
2022/09/29 10:33:46;;;;;;;4.15;3.00;;;;;;;;;;5051124;28;20407;-85
2022/09/29 10:36:13;;;;;;;5.05;3.15;;;;;;;;;;5043152;28;20048;-84
2022/09/29 10:38:39;;;;;;;3.60;2.90;;;;;;;;;;5046179;28;20146;-84
2022/09/29 10:41:07;;;;;;;2.25;2.00;;;;;;;;;;5057164;28;20040;-84
2022/09/29 10:43:38;;;;;;;2.42;2.22;;;;;;;;;;5045407;28;20538;-85
2022/09/29 10:46:05;;;;;;;2.58;1.95;;;;;;;;;;5024654;28;20067;-84
2022/09/29 10:48:31;;;;;;;2.70;2.28;;;;;;;;;;5019679;28;20046;-85
2022/09/29 10:50:57;;;;;;;2.10;1.98;;;;;;;;;;5029334;28;20041;-84
2022/09/29 10:53:37;;;;;;;2.38;1.98;;;;;;;;;;5013548;28;20048;-84
2022/09/29 10:56:15;;;;;;;2.80;2.10;;;;;;;;;;5017986;28;20189;-84
2022/09/29 10:58:42;;;;;;;4.60;2.22;;;;;;;;;;5042903;28;20107;-82
2022/09/29 11:01:15;;;;;;;2.50;1.55;;;;;;;;;;5032510;28;20132;-83
2022/09/29 11:03:47;;;;;;;10.48;1.90;;;;;;;;;;5016306;28;20049;-83
2022/09/29 11:06:14;;;;;;;2.70;1.50;;;;;;;;;;5031159;28;20562;-83
2022/09/29 11:09:00;;;;;;;4.85;1.80;;;;;;;;;;5013846;28;20057;-84
2022/09/29 11:11:58;;;;;;;2.00;1.80;;;;;;;;;;5009672;28;20563;-82
2022/09/29 11:14:39;;;;;;;1.88;1.65;;;;;;;;;;4974975;28;20148;-85
2022/09/29 11:17:08;;;;;;;;;;;;;;;;;;5027518;28;20057;-83
2022/09/29 11:19:36;;;;;;;2.97;1.50;;;;;;;;;;5033220;28;19925;-85
2022/09/29 11:22:11;;;;;;;3.67;1.58;;;;;;;;;;5033130;28;20045;-84
2022/09/29 11:24:55;;;;;;;2.08;1.40;;;;;;;;;;5027150;28;20448;-84
2022/09/29 11:27:30;;;;;;;2.33;1.40;;;;;;;;;;5020598;28;20488;-86
2022/09/29 11:30:06;;;;;;;2.80;1.90;;;;;;;;;;5036214;28;20081;-86
2022/09/29 11:32:36;;;;;;;2.35;1.35;;;;;;;;;;5027027;28;20388;-85
2022/09/29 11:35:19;;;;;;;2.92;1.52;;;;;;;;;;5034976;28;20041;-86
2022/09/29 11:37:53;;;;;;;3.53;1.50;;;;;;;;;;5046790;28;20144;-86
2022/09/29 11:40:26;;;;;;;3.67;1.70;;;;;;;;;;5034898;28;20041;-86
2022/09/29 11:42:55;;;;;;;1.50;1.40;;;;;;;;;;5024539;28;20088;-86
2022/09/29 11:45:23;;;;;;;2.85;1.35;;;;;;;;;;5035046;28;20112;-86
2022/09/29 11:48:01;;;;;;;3.03;1.45;;;;;;;;;;5022326;28;20095;-85
2022/09/29 11:50:54;;;;;;;1.60;1.50;;;;;;;;;;5020491;28;20563;-85
2022/09/29 11:53:37;;;;;;;3.55;1.50;;;;;;;;;;5013841;28;20028;-84
2022/09/29 11:56:22;;;;;;;2.10;1.90;;;;;;;;;;5024951;28;20048;-84
2022/09/29 11:58:53;;;;;;;1.88;1.70;;;;;;;;;;5031950;28;20041;-86
2022/09/29 12:01:31;;;;;;;3.90;1.90;;;;;;;;;;5014732;28;20051;-84
2022/09/29 12:04:26;;;;;;;2.25;1.92;;;;;;;;;;5008125;28;20054;-87
2022/09/29 12:06:54;;;;;;;1.90;1.80;;;;;;;;;;5002092;28;20071;-86
2022/09/29 12:09:32;;;;;;;2.15;1.95;;;;;;;;;;5014014;28;20046;-85
2022/09/29 12:12:04;;;;;;;1.70;1.60;;;;;;;;;;5045026;28;20041;-86
2022/09/29 12:14:32;;;;;;;3.63;1.98;;;;;;;;;;5024342;28;20041;-87
2022/09/29 12:17:01;;;;;;;3.40;1.65;;;;;;;;;;5018901;28;20053;-84
2022/09/29 12:19:29;;;;;;;1.77;1.55;;;;;;;;;;5038860;28;20134;-87
2022/09/29 12:21:57;;;;;;;1.77;1.67;;;;;;;;;;5045037;28;20037;-85
2022/09/29 12:24:23;;;;;;;1.85;1.67;;;;;;;;;;5041095;28;20092;-87
2022/09/29 12:26:50;;;;;;;1.48;1.38;;;;;;;;;;5037996;28;20142;-85
2022/09/29 12:29:19;;;;;;;4.15;1.83;;;;;;;;;;5019877;28;20055;-86
2022/09/29 12:31:48;;;;;;;1.77;1.60;;;;;;;;;;5039558;28;20055;-85
2022/09/29 12:34:20;;;;;;;1.63;1.30;;;;;;;;;;5008069;28;20120;-85
2022/09/29 12:37:04;;;;;;;2.00;1.50;;;;;;;;;;5031659;28;20058;-85
2022/09/29 12:39:43;;;;;;;3.97;1.80;;;;;;;;;;5023923;28;20044;-87
2022/09/29 12:42:28;;;;;;;1.88;1.70;;;;;;;;;;5012202;28;20050;-86
2022/09/29 12:44:57;;;;;;;1.33;1.23;;;;;;;;;;5036819;28;20063;-85
2022/09/29 12:47:31;;;;;;;1.50;1.40;;;;;;;;;;5049488;28;20392;-86
2022/09/29 12:50:03;;;;;;;2.55;1.50;;;;;;;;;;5029475;28;20116;-86
2022/09/29 12:52:34;;;;;;;2.97;1.40;;;;;;;;;;5041023;28;20053;-86
2022/09/29 12:55:02;;;;;;;3.35;1.60;;;;;;;;;;5053230;28;20435;-87
2022/09/29 12:57:32;;;;;;;1.50;1.40;;;;;;;;;;5041261;28;20404;-85
2022/09/29 13:00:01;;;;;;;2.80;1.80;;;;;;;;;;5050839;28;20044;-87
2022/09/29 13:02:46;;;;;;;1.95;1.45;;;;;;;;;;5051872;28;20115;-87
2022/09/29 13:05:32;;;;;;;1.60;1.50;;;;;;;;;;5028425;28;20049;-86
2022/09/29 13:08:04;;;;;;;3.17;1.63;;;;;;;;;;5054000;28;20381;-86
2022/09/29 13:10:30;;;;;;;1.20;1.17;;;;;;;;;;5034072;28;20123;-83
2022/09/29 13:13:15;;;;;;;1.50;1.15;;;;;;;;;;5061372;28;20468;-88
2022/09/29 13:16:06;;;;;;;2.08;1.40;;;;;;;;;;5035379;28;20136;-87
2022/09/29 13:18:35;;;;;;;1.30;1.20;;;;;;;;;;5060946;28;20045;-87
2022/09/29 13:21:04;;;;;;;1.10;1.10;;;;;;;;;;5062661;28;20047;-86
2022/09/29 13:23:30;;;;;;;3.20;1.15;;;;;;;;;;5062119;28;20049;-87
2022/09/29 13:26:05;;;;;;;1.60;1.05;;;;;;;;;;5043999;28;20048;-87
2022/09/29 13:28:35;;;;;;;0.90;0.90;;;;;;;;;;5068848;28;20078;-87
2022/09/29 13:31:04;;;;;;;1.60;1.17;;;;;;;;;;5059497;28;20045;-89
2022/09/29 13:33:31;;;;;;;1.23;1.20;;;;;;;;;;5049190;28;20145;-88
2022/09/29 13:35:58;;;;;;;1.25;1.10;;;;;;;;;;5038452;28;20068;-88
2022/09/29 13:38:25;;;;;;;1.02;1.00;;;;;;;;;;5044129;28;20052;-88
2022/09/29 13:41:11;;;;;;;1.20;1.10;;;;;;;;;;5049132;28;20048;-88
2022/09/29 13:43:39;;;;;;;2.90;1.10;;;;;;;;;;5058525;28;20057;-87
2022/09/29 13:46:24;;;;;;;1.08;1.00;;;;;;;;;;5056306;28;20053;-88
2022/09/29 13:49:01;;;;;;;1.73;1.08;;;;;;;;;;5046983;28;20103;-89
2022/09/29 13:51:47;;;;;;;6.95;1.40;;;;;;;;;;5033427;28;20449;-88
2022/09/29 13:54:27;;;;;;;1.88;1.10;;;;;;;;;;5058525;28;20045;-88
2022/09/29 13:57:11;;;;;;;1.33;1.00;;;;;;;;;;5059455;28;20048;-87
2022/09/29 13:59:44;;;;;;;3.53;1.20;;;;;;;;;;5055969;28;20049;-88
2022/09/29 14:02:37;;;;;;;3.83;1.20;;;;;;;;;;5032101;28;20041;-87
2022/09/29 14:05:04;;;;;;;1.00;0.90;;;;;;;;;;5030305;28;20053;-88
2022/09/29 14:07:50;;;;;;;3.00;1.00;;;;;;;;;;5058884;28;20508;-88
2022/09/29 14:10:23;;;;;;;0.80;0.80;;;;;;;;;;5042587;28;20057;-88
2022/09/29 14:12:55;;;;;;;1.00;0.90;;;;;;;;;;5052349;28;20147;-89
2022/09/29 14:15:22;;;;;;;2.35;0.93;;;;;;;;;;5044668;28;20125;-88
2022/09/29 14:17:53;;;;;;;1.63;1.00;;;;;;;;;;5057585;28;20051;-90
2022/09/29 14:20:21;;;;;;;0.80;0.80;;;;;;;;;;5060952;28;20056;-88
2022/09/29 14:23:05;;;;;;;0.90;0.90;;;;;;;;;;5042042;28;20127;-89
2022/09/29 14:25:53;;;;;;;0.88;0.85;;;;;;;;;;5041174;28;20495;-89
2022/09/29 14:28:22;;;;;;;0.88;0.88;;;;;;;;;;5068919;28;20123;-88
2022/09/29 14:30:50;;;;;;;1.00;0.90;;;;;;;;;;5053257;28;20056;-88
2022/09/29 14:33:22;;;;;;;1.00;1.00;;;;;;;;;;5019507;28;20068;-89
2022/09/29 14:36:01;;;;;;;2.15;0.98;;;;;;;;;;5054087;28;20037;-89
2022/09/29 14:38:27;;;;;;;0.98;0.98;;;;;;;;;;5055342;28;20048;-90
2022/09/29 14:41:06;;;;;;;1.02;1.00;;;;;;;;;;5023456;28;20051;-88
2022/09/29 14:43:53;;;;;;;4.35;1.23;;;;;;;;;;5060630;28;20051;-89
2022/09/29 14:52:26;;;;;;;2.65;1.10;;;;;;;;;;5048895;28;20037;-89
2022/09/29 14:55:01;;;;;;;1.48;1.15;;;;;;;;;;5034423;28;20052;-89
2022/09/29 14:57:39;;;;;;;1.08;1.08;;;;;;;;;;5034198;28;20361;-89
2022/09/29 15:00:10;;;;;;;1.00;1.00;;;;;;;;;;5053168;28;20051;-88
2022/09/29 15:02:41;;;;;;;1.75;0.90;;;;;;;;;;5033316;28;20396;-88
2022/09/29 15:05:15;;;;;;;1.13;0.90;;;;;;;;;;5015665;28;20045;-88
2022/09/29 15:07:41;;;;;;;0.93;0.93;;;;;;;;;;5035664;28;20068;-88
2022/09/29 15:10:22;;;;;;;0.80;0.80;;;;;;;;;;5055259;28;20045;-87
2022/09/29 15:12:49;;;;;;;2.60;1.10;;;;;;;;;;5055141;28;20536;-89